Kuo Long — VRQF2 — position and weather

sailwx.info

Track history (hours):
 
Tides and Currents Weather Stations Pressure Air Temp Water Temp Dewpoint Dewpoint Depression Visibility Wind Speed Wind Dir Waves Ship Positions

Kuo Long

Last reported at 2018-Jun-07 05:35 UTC. Time now 2018-Jun-19 20:07 UTC.
Position N 22°30' E 119°38'.
Warning: this ship's position is 12 days out of date.

Length 170 m; draft 9 m.

Type: Ship (hazmat cat A). MMSI: 477884200.

Date/timePositionNaut miles runAvg speedWind from/ knotsBaromVisibWave heightAir tempDewpointWater temp
2018-Jun-07 05:35N 22°30' E 119°38'716.8
2018-Jun-07 05:09N 22°30' E 119°45'216.8
2018-Jun-07 05:00N 22°31' E 119°48'917.1
2018-Jun-07 04:30N 22°31' E 119°57'817.1
2018-Jun-07 04:00N 22°33' E 120°06'816.0
2018-Jun-07 03:30N 22°33' E 120°15'4 7.9
2018-Jun-07 03:01N 22°33' E 120°19'0 0.7
2018-Jun-07 02:22N 22°34' E 120°19'0 0.0
2018-Jun-07 01:52N 22°34' E 120°19'0 0.0
2018-Jun-07 01:16N 22°34' E 120°19'0 0.0
2018-Jun-07 00:58N 22°34' E 120°19'0 0.0
2018-Jun-06 23:58N 22°34' E 120°19'0 0.0
2018-Jun-06 23:28N 22°34' E 120°19'0 0.0
2018-Jun-06 22:58N 22°34' E 120°19'0 0.0
2018-Jun-06 22:28N 22°34' E 120°19'0 0.0
2018-Jun-06 21:58N 22°34' E 120°19'0 0.0
2018-Jun-06 21:22N 22°34' E 120°19'0 0.0
2018-Jun-06 20:52N 22°34' E 120°19'0 0.0
2018-Jun-06 20:28N 22°34' E 120°19'0 0.0
2018-Jun-06 19:58N 22°34' E 120°19'0 0.0
2018-Jun-06 19:13N 22°34' E 120°19'0 1.3
2018-Jun-06 19:00N 22°33' E 120°19'3 6.7
2018-Jun-06 18:30N 22°32' E 120°16'2 3.8
2018-Jun-06 18:00N 22°32' E 120°14'4 8.6
2018-Jun-06 17:30N 22°35' E 120°10'711.8
2018-Jun-06 16:55N 22°41' E 120°06'511.8
2018-Jun-06 16:30N 22°45' E 120°04'612.3
2018-Jun-06 16:00N 22°51' E 120°01'  
2018-Jun-02 23:01N 33°38' E 134°42'016.1
2018-Jun-02 23:00N 33°38' E 134°42'1116.5
2018-Jun-02 22:19N 33°47' E 134°50'716.5
2018-Jun-02 21:55N 33°54' E 134°53'716.4
2018-Jun-02 21:30N 34°00' E 134°55'816.5
2018-Jun-02 21:00N 34°08' E 134°57'714.9
2018-Jun-02 20:30N 34°16' E 134°58'815.1
2018-Jun-02 20:01N 34°22' E 135°02'1019.3
2018-Jun-02 19:31N 34°30' E 135°10'917.7
2018-Jun-02 19:01N 34°37' E 135°16'3 6.3
2018-Jun-02 18:30N 34°40' E 135°14'0 0.1
2018-Jun-02 17:57N 34°40' E 135°14'0 0.0
2018-Jun-02 17:27N 34°40' E 135°14'0 0.0
2018-Jun-02 16:57N 34°40' E 135°14'0 0.0
2018-Jun-02 16:27N 34°40' E 135°14'0 0.0
2018-Jun-02 15:57N 34°40' E 135°14'0 0.0
2018-Jun-02 15:27N 34°40' E 135°14'0 0.0
2018-Jun-02 14:57N 34°40' E 135°14'0 0.0
2018-Jun-02 14:27N 34°40' E 135°14'0 0.0
2018-Jun-02 13:57N 34°40' E 135°14'0 0.0
2018-Jun-02 13:27N 34°40' E 135°14'0 0.0
2018-Jun-02 12:57N 34°40' E 135°14'0 0.0
2018-Jun-02 12:27N 34°40' E 135°14'0 0.0
2018-Jun-02 11:57N 34°40' E 135°14'0 0.0
2018-Jun-02 11:24N 34°40' E 135°14'0 0.0
2018-Jun-02 10:57N 34°40' E 135°14'0 0.0
2018-Jun-02 10:30N 34°40' E 135°14'0 0.0
2018-Jun-02 10:00N 34°40' E 135°14'0 0.0
2018-Jun-02 09:30N 34°40' E 135°14'0 0.0
2018-Jun-02 09:00N 34°40' E 135°14'0 0.7
2018-Jun-02 08:30N 34°40' E 135°15'4 8.9
2018-Jun-02 08:01N 34°38' E 135°20'4 7.3
2018-Jun-02 07:30N 34°39' E 135°24'0 0.0
2018-Jun-02 06:59N 34°39' E 135°24'0 0.0
2018-Jun-02 06:29N 34°39' E 135°24'0 0.0
2018-Jun-02 05:59N 34°39' E 135°24'0 0.0
2018-Jun-02 05:29N 34°39' E 135°24'0 0.0
2018-Jun-02 04:59N 34°39' E 135°24'0 0.1
2018-Jun-02 04:29N 34°39' E 135°24'0 0.1
2018-Jun-02 03:59N 34°39' E 135°24'0 0.0
2018-Jun-02 03:29N 34°39' E 135°24'0 0.1
2018-Jun-02 02:59N 34°39' E 135°24'0 0.1
2018-Jun-02 02:29N 34°39' E 135°24'0 0.0
2018-Jun-02 01:59N 34°39' E 135°24'0 0.0
2018-Jun-02 01:29N 34°39' E 135°24'0 0.0
2018-Jun-02 00:56N 34°39' E 135°24'0 0.0
2018-Jun-02 00:29N 34°39' E 135°24'0 0.8
2018-Jun-02 00:00N 34°38' E 135°24'510.3
2018-Jun-01 23:30N 34°35' E 135°19'917.6
2018-Jun-01 23:00N 34°29' E 135°12'918.0
2018-Jun-01 22:30N 34°22' E 135°04'917.2
2018-Jun-01 22:00N 34°15' E 134°59'713.7
2018-Jun-01 21:30N 34°08' E 134°59'714.9
2018-Jun-01 21:00N 34°00' E 134°58'714.8
2018-Jun-01 20:31N 33°53' E 134°58'714.0
2018-Jun-01 20:00N 33°46' E 134°60'714.1
2018-Jun-01 19:30N 33°41' E 135°06'714.4
2018-Jun-01 19:01N 33°36' E 135°12'217 5.0
2018-May-30 23:13N 34°51' E 139°18'417.4
2018-May-30 23:00N 34°54' E 139°22'917.8
2018-May-30 22:30N 34°59' E 139°31'918.0
2018-May-30 22:00N 35°04' E 139°39'816.9
2018-May-30 21:31N 35°11' E 139°46'611.6
2018-May-30 21:01N 35°17' E 139°45'611.8
2018-May-30 20:31N 35°22' E 139°42'4 8.8
2018-May-30 20:01N 35°27' E 139°41'0 0.7
2018-May-30 19:28N 35°26' E 139°41'0 0.0
2018-May-30 18:58N 35°26' E 139°41'0 0.0
2018-May-30 18:28N 35°26' E 139°41'0 0.1
2018-May-30 17:55N 35°26' E 139°41'0 0.1
2018-May-30 17:28N 35°26' E 139°41'0 0.0
2018-May-30 16:58N 35°26' E 139°41'0 0.0
2018-May-30 16:28N 35°26' E 139°41'0 0.0
2018-May-30 15:58N 35°26' E 139°41'0 0.0
2018-May-30 15:28N 35°26' E 139°41'0 0.0
2018-May-30 14:55N 35°26' E 139°41'0 0.0
2018-May-30 14:28N 35°26' E 139°41'0 0.0
2018-May-30 13:58N 35°26' E 139°41'0 0.0
2018-May-30 13:28N 35°26' E 139°41'0 0.0
2018-May-30 12:58N 35°26' E 139°41'0 0.0
2018-May-30 12:28N 35°26' E 139°41'0 0.0
2018-May-30 11:58N 35°26' E 139°41'0 0.0
2018-May-30 11:28N 35°26' E 139°41'0 0.0
2018-May-30 10:58N 35°26' E 139°41'0 0.0
2018-May-30 10:28N 35°26' E 139°41'0 0.0
2018-May-30 09:58N 35°26' E 139°41'0 0.0
2018-May-30 09:28N 35°26' E 139°41'0 0.0
2018-May-30 08:58N 35°26' E 139°41'0 0.0
2018-May-30 08:28N 35°26' E 139°41'0 0.0
2018-May-30 08:01N 35°26' E 139°41'2 3.6
2018-May-30 07:31N 35°26' E 139°43'5 9.4
2018-May-30 07:01N 35°28' E 139°48'611.4
2018-May-30 06:30N 35°34' E 139°49'5 8.6
2018-May-30 05:59N 35°37' E 139°46'0 0.0
2018-May-30 05:11N 35°37' E 139°46'0 0.0
2018-May-30 04:38N 35°37' E 139°46'0 0.0
2018-May-30 02:59N 35°37' E 139°46'0 0.0
2018-May-30 01:20N 35°37' E 139°46'0 0.0
2018-May-30 00:59N 35°37' E 139°46'0 0.0
2018-May-30 00:29N 35°37' E 139°46'0 0.0
2018-May-29 23:50N 35°37' E 139°46'0 0.0
2018-May-29 23:26N 35°37' E 139°46'0 0.0
2018-May-29 22:59N 35°37' E 139°46'0 0.0
2018-May-29 22:29N 35°37' E 139°46'0 0.0
2018-May-29 21:59N 35°37' E 139°46'0 0.0
2018-May-29 21:29N 35°37' E 139°46'0 0.0
2018-May-29 20:56N 35°37' E 139°46'0 0.0
2018-May-29 20:29N 35°37' E 139°46'0 0.0
2018-May-29 19:59N 35°37' E 139°46'0 0.0
2018-May-29 19:29N 35°37' E 139°46'0 0.0
2018-May-29 18:59N 35°37' E 139°46'0 0.0
2018-May-29 18:29N 35°37' E 139°46'0 0.0
2018-May-29 17:53N 35°37' E 139°46'0 0.0
2018-May-29 17:29N 35°37' E 139°46'0 0.0
2018-May-29 16:50N 35°37' E 139°46'0 0.0
2018-May-29 14:26N 35°37' E 139°46'0 0.0
2018-May-29 13:56N 35°37' E 139°46'0 0.0
2018-May-29 13:29N 35°37' E 139°46'0 0.0
2018-May-29 12:26N 35°37' E 139°46'0 0.0
2018-May-29 11:53N 35°37' E 139°46'0 0.0
2018-May-29 11:29N 35°37' E 139°46'0 0.0
2018-May-29 10:23N 35°37' E 139°46'0 0.0
2018-May-29 09:53N 35°37' E 139°46'0 0.0
2018-May-29 09:29N 35°37' E 139°46'1 2.5
2018-May-29 08:59N 35°36' E 139°47'610.1
2018-May-29 08:25N 35°32' E 139°52'4 8.6
2018-May-29 08:00N 35°29' E 139°52'714.5
2018-May-29 07:31N 35°24' E 139°46'612.0
2018-May-29 07:00N 35°18' E 139°45'612.5
2018-May-29 06:31N 35°12' E 139°47'5 9.0
2018-May-29 06:00N 35°07' E 139°45'714.1
2018-May-29 05:30N 35°02' E 139°39'815.7
2018-May-29 05:00N 34°57' E 139°31'816.3
2018-May-29 04:30N 34°52' E 139°24'816.8
2018-May-29 04:00N 34°46' E 139°17'  
Track history (hours):
 
Tides and Currents Weather Stations Pressure Air Temp Water Temp Dewpoint Dewpoint Depression Visibility Wind Speed Wind Dir Waves Ship Positions

Kuo Long

Last reported at 2018-Jun-07 05:35 UTC. Time now 2018-Jun-19 20:07 UTC.
Position N 22°30' E 119°38'.
Warning: this ship's position is 12 days out of date.

Length 170 m; draft 9 m.

Type: Ship (hazmat cat A). MMSI: 477884200.

Date/timePositionNaut miles runAvg speedWind from/ knotsBaromVisibWave heightAir tempDewpointWater temp
2018-Jun-07 05:35N 22°30' E 119°38'716.8
2018-Jun-07 05:09N 22°30' E 119°45'216.8
2018-Jun-07 05:00N 22°31' E 119°48'917.1
2018-Jun-07 04:30N 22°31' E 119°57'817.1
2018-Jun-07 04:00N 22°33' E 120°06'816.0
2018-Jun-07 03:30N 22°33' E 120°15'4 7.9
2018-Jun-07 03:01N 22°33' E 120°19'0 0.7
2018-Jun-07 02:22N 22°34' E 120°19'0 0.0
2018-Jun-07 01:52N 22°34' E 120°19'0 0.0
2018-Jun-07 01:16N 22°34' E 120°19'0 0.0
2018-Jun-07 00:58N 22°34' E 120°19'0 0.0
2018-Jun-06 23:58N 22°34' E 120°19'0 0.0
2018-Jun-06 23:28N 22°34' E 120°19'0 0.0
2018-Jun-06 22:58N 22°34' E 120°19'0 0.0
2018-Jun-06 22:28N 22°34' E 120°19'0 0.0
2018-Jun-06 21:58N 22°34' E 120°19'0 0.0
2018-Jun-06 21:22N 22°34' E 120°19'0 0.0
2018-Jun-06 20:52N 22°34' E 120°19'0 0.0
2018-Jun-06 20:28N 22°34' E 120°19'0 0.0
2018-Jun-06 19:58N 22°34' E 120°19'0 0.0
2018-Jun-06 19:13N 22°34' E 120°19'0 1.3
2018-Jun-06 19:00N 22°33' E 120°19'3 6.7
2018-Jun-06 18:30N 22°32' E 120°16'2 3.8
2018-Jun-06 18:00N 22°32' E 120°14'4 8.6
2018-Jun-06 17:30N 22°35' E 120°10'711.8
2018-Jun-06 16:55N 22°41' E 120°06'511.8
2018-Jun-06 16:30N 22°45' E 120°04'612.3
2018-Jun-06 16:00N 22°51' E 120°01'  
2018-Jun-02 23:01N 33°38' E 134°42'016.1
2018-Jun-02 23:00N 33°38' E 134°42'1116.5
2018-Jun-02 22:19N 33°47' E 134°50'716.5
2018-Jun-02 21:55N 33°54' E 134°53'716.4
2018-Jun-02 21:30N 34°00' E 134°55'816.5
2018-Jun-02 21:00N 34°08' E 134°57'714.9
2018-Jun-02 20:30N 34°16' E 134°58'815.1
2018-Jun-02 20:01N 34°22' E 135°02'1019.3
2018-Jun-02 19:31N 34°30' E 135°10'917.7
2018-Jun-02 19:01N 34°37' E 135°16'3 6.3
2018-Jun-02 18:30N 34°40' E 135°14'0 0.1
2018-Jun-02 17:57N 34°40' E 135°14'0 0.0
2018-Jun-02 17:27N 34°40' E 135°14'0 0.0
2018-Jun-02 16:57N 34°40' E 135°14'0 0.0
2018-Jun-02 16:27N 34°40' E 135°14'0 0.0
2018-Jun-02 15:57N 34°40' E 135°14'0 0.0
2018-Jun-02 15:27N 34°40' E 135°14'0 0.0
2018-Jun-02 14:57N 34°40' E 135°14'0 0.0
2018-Jun-02 14:27N 34°40' E 135°14'0 0.0
2018-Jun-02 13:57N 34°40' E 135°14'0 0.0
2018-Jun-02 13:27N 34°40' E 135°14'0 0.0
2018-Jun-02 12:57N 34°40' E 135°14'0 0.0
2018-Jun-02 12:27N 34°40' E 135°14'0 0.0
2018-Jun-02 11:57N 34°40' E 135°14'0 0.0
2018-Jun-02 11:24N 34°40' E 135°14'0 0.0
2018-Jun-02 10:57N 34°40' E 135°14'0 0.0
2018-Jun-02 10:30N 34°40' E 135°14'0 0.0
2018-Jun-02 10:00N 34°40' E 135°14'0 0.0
2018-Jun-02 09:30N 34°40' E 135°14'0 0.0
2018-Jun-02 09:00N 34°40' E 135°14'0 0.7
2018-Jun-02 08:30N 34°40' E 135°15'4 8.9
2018-Jun-02 08:01N 34°38' E 135°20'4 7.3
2018-Jun-02 07:30N 34°39' E 135°24'0 0.0
2018-Jun-02 06:59N 34°39' E 135°24'0 0.0
2018-Jun-02 06:29N 34°39' E 135°24'0 0.0
2018-Jun-02 05:59N 34°39' E 135°24'0 0.0
2018-Jun-02 05:29N 34°39' E 135°24'0 0.0
2018-Jun-02 04:59N 34°39' E 135°24'0 0.1
2018-Jun-02 04:29N 34°39' E 135°24'0 0.1
2018-Jun-02 03:59N 34°39' E 135°24'0 0.0
2018-Jun-02 03:29N 34°39' E 135°24'0 0.1
2018-Jun-02 02:59N 34°39' E 135°24'0 0.1
2018-Jun-02 02:29N 34°39' E 135°24'0 0.0
2018-Jun-02 01:59N 34°39' E 135°24'0 0.0
2018-Jun-02 01:29N 34°39' E 135°24'0 0.0
2018-Jun-02 00:56N 34°39' E 135°24'0 0.0
2018-Jun-02 00:29N 34°39' E 135°24'0 0.8
2018-Jun-02 00:00N 34°38' E 135°24'510.3
2018-Jun-01 23:30N 34°35' E 135°19'917.6
2018-Jun-01 23:00N 34°29' E 135°12'918.0
2018-Jun-01 22:30N 34°22' E 135°04'917.2
2018-Jun-01 22:00N 34°15' E 134°59'713.7
2018-Jun-01 21:30N 34°08' E 134°59'714.9
2018-Jun-01 21:00N 34°00' E 134°58'714.8
2018-Jun-01 20:31N 33°53' E 134°58'714.0
2018-Jun-01 20:00N 33°46' E 134°60'714.1
2018-Jun-01 19:30N 33°41' E 135°06'714.4
2018-Jun-01 19:01N 33°36' E 135°12'217 5.0
2018-May-30 23:13N 34°51' E 139°18'417.4
2018-May-30 23:00N 34°54' E 139°22'917.8
2018-May-30 22:30N 34°59' E 139°31'918.0
2018-May-30 22:00N 35°04' E 139°39'816.9
2018-May-30 21:31N 35°11' E 139°46'611.6
2018-May-30 21:01N 35°17' E 139°45'611.8
2018-May-30 20:31N 35°22' E 139°42'4 8.8
2018-May-30 20:01N 35°27' E 139°41'0 0.7
2018-May-30 19:28N 35°26' E 139°41'0 0.0
2018-May-30 18:58N 35°26' E 139°41'0 0.0
2018-May-30 18:28N 35°26' E 139°41'0 0.1
2018-May-30 17:55N 35°26' E 139°41'0 0.1
2018-May-30 17:28N 35°26' E 139°41'0 0.0
2018-May-30 16:58N 35°26' E 139°41'0 0.0
2018-May-30 16:28N 35°26' E 139°41'0 0.0
2018-May-30 15:58N 35°26' E 139°41'0 0.0
2018-May-30 15:28N 35°26' E 139°41'0 0.0
2018-May-30 14:55N 35°26' E 139°41'0 0.0
2018-May-30 14:28N 35°26' E 139°41'0 0.0
2018-May-30 13:58N 35°26' E 139°41'0 0.0
2018-May-30 13:28N 35°26' E 139°41'0 0.0
2018-May-30 12:58N 35°26' E 139°41'0 0.0
2018-May-30 12:28N 35°26' E 139°41'0 0.0
2018-May-30 11:58N 35°26' E 139°41'0 0.0
2018-May-30 11:28N 35°26' E 139°41'0 0.0
2018-May-30 10:58N 35°26' E 139°41'0 0.0
2018-May-30 10:28N 35°26' E 139°41'0 0.0
2018-May-30 09:58N 35°26' E 139°41'0 0.0
2018-May-30 09:28N 35°26' E 139°41'0 0.0
2018-May-30 08:58N 35°26' E 139°41'0 0.0
2018-May-30 08:28N 35°26' E 139°41'0 0.0
2018-May-30 08:01N 35°26' E 139°41'2 3.6
2018-May-30 07:31N 35°26' E 139°43'5 9.4
2018-May-30 07:01N 35°28' E 139°48'611.4
2018-May-30 06:30N 35°34' E 139°49'5 8.6
2018-May-30 05:59N 35°37' E 139°46'0 0.0
2018-May-30 05:11N 35°37' E 139°46'0 0.0
2018-May-30 04:38N 35°37' E 139°46'0 0.0
2018-May-30 02:59N 35°37' E 139°46'0 0.0
2018-May-30 01:20N 35°37' E 139°46'0 0.0
2018-May-30 00:59N 35°37' E 139°46'0 0.0
2018-May-30 00:29N 35°37' E 139°46'0 0.0
2018-May-29 23:50N 35°37' E 139°46'0 0.0
2018-May-29 23:26N 35°37' E 139°46'0 0.0
2018-May-29 22:59N 35°37' E 139°46'0 0.0
2018-May-29 22:29N 35°37' E 139°46'0 0.0
2018-May-29 21:59N 35°37' E 139°46'0 0.0
2018-May-29 21:29N 35°37' E 139°46'0 0.0
2018-May-29 20:56N 35°37' E 139°46'0 0.0
2018-May-29 20:29N 35°37' E 139°46'0 0.0
2018-May-29 19:59N 35°37' E 139°46'0 0.0
2018-May-29 19:29N 35°37' E 139°46'0 0.0
2018-May-29 18:59N 35°37' E 139°46'0 0.0
2018-May-29 18:29N 35°37' E 139°46'0 0.0
2018-May-29 17:53N 35°37' E 139°46'0 0.0
2018-May-29 17:29N 35°37' E 139°46'0 0.0
2018-May-29 16:50N 35°37' E 139°46'0 0.0
2018-May-29 14:26N 35°37' E 139°46'0 0.0
2018-May-29 13:56N 35°37' E 139°46'0 0.0
2018-May-29 13:29N 35°37' E 139°46'0 0.0
2018-May-29 12:26N 35°37' E 139°46'0 0.0
2018-May-29 11:53N 35°37' E 139°46'0 0.0
2018-May-29 11:29N 35°37' E 139°46'0 0.0
2018-May-29 10:23N 35°37' E 139°46'0 0.0
2018-May-29 09:53N 35°37' E 139°46'0 0.0
2018-May-29 09:29N 35°37' E 139°46'1 2.5
2018-May-29 08:59N 35°36' E 139°47'610.1
2018-May-29 08:25N 35°32' E 139°52'4 8.6
2018-May-29 08:00N 35°29' E 139°52'714.5
2018-May-29 07:31N 35°24' E 139°46'612.0
2018-May-29 07:00N 35°18' E 139°45'612.5
2018-May-29 06:31N 35°12' E 139°47'5 9.0
2018-May-29 06:00N 35°07' E 139°45'714.1
2018-May-29 05:30N 35°02' E 139°39'815.7
2018-May-29 05:00N 34°57' E 139°31'816.3
2018-May-29 04:30N 34°52' E 139°24'816.8
2018-May-29 04:00N 34°46' E 139°17'  

Dump ship's entire track history